Time;durP1;ratioP1;P1;durP2;ratioP2;P2;SDS_P1;SDS_P2;PMS_P1;PMS_P2;Temp;Humidity;BMP_temperature;BMP_pressure;BME280_temperature;BME280_humidity;BME280_pressure;Samples;Min_cycle;Max_cycle;Signal;HPM_P1;HPM_P2
2023/01/31 00:00:53;;;;;;;6.82;3.47;;;;;;;1.39;98.13;98187.97;4962515;28;20050;-63
2023/01/31 00:03:19;;;;;;;10.23;4.30;;;;;;;1.29;98.37;98186.34;4956661;28;20043;-62
2023/01/31 00:05:46;;;;;;;8.65;4.00;;;;;;;1.03;99.66;98184.75;4960156;28;20043;-61
2023/01/31 00:08:14;;;;;;;12.43;3.97;;;;;;;0.95;100.00;98176.75;4954261;28;20039;-63
2023/01/31 00:10:40;;;;;;;7.40;3.72;;;;;;;0.88;99.99;98171.28;4956347;28;20089;-63
2023/01/31 00:13:07;;;;;;;10.63;4.00;;;;;;;0.77;100.00;98166.28;4956928;28;20325;-62
2023/01/31 00:15:33;;;;;;;8.23;3.35;;;;;;;0.67;100.00;98161.16;4956605;28;20045;-61
2023/01/31 00:18:00;;;;;;;7.10;3.97;;;;;;;0.58;100.00;98155.00;4948617;28;20530;-60
2023/01/31 00:20:26;;;;;;;9.80;3.80;;;;;;;0.59;100.00;98151.31;4960792;28;20043;-62
2023/01/31 00:22:53;;;;;;;12.43;4.30;;;;;;;0.51;100.00;98146.00;4958506;28;20058;-63
2023/01/31 00:25:20;;;;;;;12.93;4.78;;;;;;;0.47;100.00;98155.31;4961596;28;20047;-63
2023/01/31 00:27:47;;;;;;;9.43;4.35;;;;;;;0.48;100.00;98157.84;4962427;28;20039;-63
2023/01/31 00:30:13;;;;;;;8.77;4.32;;;;;;;0.47;100.00;98155.31;4959845;28;20058;-62
2023/01/31 00:32:40;;;;;;;9.00;4.18;;;;;;;0.57;100.00;98158.66;4961646;28;20465;-61
2023/01/31 00:35:07;;;;;;;10.65;4.50;;;;;;;0.52;100.00;98156.50;4959290;28;20066;-61
2023/01/31 00:37:34;;;;;;;7.22;3.85;;;;;;;0.48;100.00;98143.69;4960700;28;20062;-62
2023/01/31 00:40:00;;;;;;;6.55;3.60;;;;;;;0.54;100.00;98140.34;4958621;28;20138;-63
2023/01/31 00:42:27;;;;;;;8.35;4.10;;;;;;;0.58;100.00;98141.66;4959477;28;20089;-62
2023/01/31 00:44:53;;;;;;;9.05;4.43;;;;;;;0.52;100.00;98145.84;4961310;28;20565;-62
2023/01/31 00:47:20;;;;;;;7.45;3.50;;;;;;;0.57;100.00;98149.84;4959056;28;20053;-62
2023/01/31 00:49:46;;;;;;;6.70;3.92;;;;;;;0.60;100.00;98146.84;4958668;28;20118;-62
2023/01/31 00:52:12;;;;;;;7.95;4.07;;;;;;;0.63;99.90;98134.00;4965319;28;20042;-62
2023/01/31 00:54:39;;;;;;;10.30;3.55;;;;;;;0.72;99.59;98129.50;4965417;28;20383;-63
2023/01/31 00:57:05;;;;;;;13.32;3.70;;;;;;;0.55;100.00;98135.84;4952473;28;20043;-61
2023/01/31 00:59:32;;;;;;;8.18;3.50;;;;;;;0.71;99.71;98135.84;4956681;28;20162;-62
2023/01/31 01:01:59;;;;;;;9.15;3.78;;;;;;;0.66;99.47;98134.69;4955866;28;20063;-62
2023/01/31 01:04:25;;;;;;;10.52;3.45;;;;;;;0.64;99.34;98133.03;4959453;28;20137;-62
2023/01/31 01:06:52;;;;;;;11.65;3.90;;;;;;;0.61;99.84;98132.50;4955181;28;20043;-61
2023/01/31 01:09:18;;;;;;;8.45;4.05;;;;;;;0.55;99.90;98125.19;4963633;28;20191;-62
2023/01/31 01:11:46;;;;;;;5.70;3.10;;;;;;;0.69;99.61;98137.81;4955368;28;20335;-59
2023/01/31 01:14:13;;;;;;;7.18;3.25;;;;;;;0.72;99.41;98136.66;4953404;28;20462;-61
2023/01/31 01:16:40;;;;;;;6.78;3.15;;;;;;;0.73;99.26;98144.47;4961680;28;20537;-60
2023/01/31 01:19:14;;;;;;;11.23;3.88;;;;;;;0.73;99.26;98140.97;4955333;28;20053;-62
2023/01/31 01:21:40;;;;;;;9.23;3.53;;;;;;;0.64;99.35;98140.16;4957915;28;20312;-61
2023/01/31 01:24:12;;;;;;;8.40;3.95;;;;;;;0.73;99.73;98141.81;4958477;28;20046;-62
2023/01/31 01:26:38;;;;;;;6.47;3.50;;;;;;;0.75;100.00;98144.31;4964182;28;20039;-63
2023/01/31 01:29:05;;;;;;;13.50;3.53;;;;;;;0.78;100.00;98152.78;4954290;28;20035;-63
2023/01/31 01:31:32;;;;;;;10.32;3.80;;;;;;;0.73;100.00;98136.47;4957676;28;20106;-63
2023/01/31 01:34:20;;;;;;;15.43;4.43;;;;;;;0.74;100.00;98138.13;4960980;28;20139;-63
2023/01/31 01:36:46;;;;;;;10.10;4.38;;;;;;;0.77;100.00;98144.97;4958370;28;20058;-60
2023/01/31 01:39:15;;;;;;;12.00;4.35;;;;;;;0.85;100.00;98142.28;4957919;28;20071;-62
2023/01/31 01:41:42;;;;;;;13.00;3.58;;;;;;;0.74;100.00;98134.66;4951802;28;20071;-63
2023/01/31 01:44:42;;;;;;;9.40;4.07;;;;;;;0.74;100.00;98132.81;4958349;28;20042;-62
2023/01/31 01:47:43;;;;;;;12.90;3.95;;;;;;;0.60;100.00;98146.84;4967845;28;20051;-60
2023/01/31 01:50:24;;;;;;;9.65;4.13;;;;;;;0.57;100.00;98148.00;4959763;28;20230;-62
2023/01/31 01:53:15;;;;;;;12.45;4.43;;;;;;;0.56;100.00;98149.03;4961316;28;20490;-62
2023/01/31 01:55:50;;;;;;;11.35;4.50;;;;;;;0.50;100.00;98147.84;4956197;28;20043;-62
2023/01/31 01:58:23;;;;;;;10.57;4.45;;;;;;;0.38;100.00;98144.66;4957934;28;20098;-61
2023/01/31 02:00:50;;;;;;;10.70;4.88;;;;;;;0.42;100.00;98139.88;4961026;28;20126;-59
2023/01/31 02:03:17;;;;;;;13.38;5.82;;;;;;;0.30;100.00;98139.38;4957859;28;20421;-61
2023/01/31 02:05:46;;;;;;;12.82;4.55;;;;;;;0.24;100.00;98132.03;4960199;28;20046;-62
2023/01/31 02:08:22;;;;;;;8.60;4.93;;;;;;;0.22;100.00;98134.84;4952230;28;20110;-62
2023/01/31 02:10:56;;;;;;;9.82;4.45;;;;;;;0.27;100.00;98142.38;4954086;28;20055;-62
2023/01/31 02:13:23;;;;;;;10.05;4.47;;;;;;;0.21;100.00;98141.19;4956042;28;20047;-62
2023/01/31 02:15:50;;;;;;;11.27;5.63;;;;;;;0.06;100.00;98138.34;4958165;28;20118;-62
2023/01/31 02:18:19;;;;;;;12.65;4.47;;;;;;;0.01;100.00;98139.84;4958906;28;20050;-61
2023/01/31 02:21:15;;;;;;;12.88;5.18;;;;;;;0.08;100.00;98138.19;4958562;28;20705;-62
2023/01/31 02:24:00;;;;;;;12.65;4.50;;;;;;;0.12;100.00;98150.19;4960642;28;20098;-62
2023/01/31 02:26:46;;;;;;;10.00;4.90;;;;;;;0.08;100.00;98155.00;4952646;28;20318;-63
2023/01/31 02:29:30;;;;;;;16.77;5.50;;;;;;;0.04;100.00;98158.16;4955127;28;20108;-63
2023/01/31 02:32:23;;;;;;;9.88;4.47;;;;;;;0.12;100.00;98153.66;4951997;28;20054;-63
2023/01/31 02:34:59;;;;;;;11.20;4.60;;;;;;;0.18;100.00;98160.16;4952239;28;20097;-62
2023/01/31 02:37:36;;;;;;;10.27;4.75;;;;;;;0.19;100.00;98161.81;4960519;28;20031;-63
2023/01/31 02:40:11;;;;;;;13.82;4.07;;;;;;;0.06;100.00;98170.31;4955782;28;20154;-62
2023/01/31 02:42:52;;;;;;;13.52;4.65;;;;;;;-0.01;100.00;98169.28;4966033;28;20568;-62
2023/01/31 02:45:28;;;;;;;11.57;4.20;;;;;;;0.02;100.00;98168.13;4976117;28;20045;-64
2023/01/31 02:52:27;;;;;;;20.63;5.85;;;;;;;0.02;100.00;98178.78;4959405;28;20037;-60
2023/01/31 02:57:56;;;;;;;8.95;3.42;;;;;;;0.03;100.00;98175.97;4978180;28;19937;-63
2023/01/31 03:00:24;;;;;;;10.70;5.22;;;;;;;0.11;100.00;98170.66;4976292;28;20066;-63
2023/01/31 03:02:51;;;;;;;12.38;3.88;;;;;;;0.15;100.00;98178.31;4954155;28;20047;-62
2023/01/31 03:05:18;;;;;;;12.70;4.32;;;;;;;0.21;100.00;98183.81;4955688;28;20058;-63
2023/01/31 03:12:09;;;;;;;11.77;5.35;;;;;;;0.17;100.00;98181.63;4971284;28;20097;-63
2023/01/31 03:14:50;;;;;;;9.00;4.00;;;;;;;0.28;100.00;98177.81;4950157;28;20043;-62
2023/01/31 03:17:44;;;;;;;;;;;;;;;0.14;100.00;98174.00;4977551;28;20035;-63
2023/01/31 03:20:14;;;;;;;12.02;4.35;;;;;;;0.21;100.00;98183.81;4938062;28;20391;-63
2023/01/31 03:22:57;;;;;;;11.82;4.22;;;;;;;0.10;100.00;98181.47;4958589;28;20047;-62
2023/01/31 03:25:28;;;;;;;10.80;4.15;;;;;;;0.05;100.00;98184.63;4952355;28;20039;-62
2023/01/31 03:28:01;;;;;;;11.05;4.30;;;;;;;0.02;100.00;98178.78;4971791;28;20334;-61
2023/01/31 03:30:36;;;;;;;8.52;3.10;;;;;;;0.14;100.00;98184.66;4952924;28;20185;-63
2023/01/31 03:33:13;;;;;;;14.38;4.60;;;;;;;-0.02;100.00;98180.94;4960307;28;20073;-62
2023/01/31 03:35:41;;;;;;;11.43;4.28;;;;;;;0.04;100.00;98187.47;4948949;28;20046;-63
2023/01/31 03:38:20;;;;;;;11.98;4.38;;;;;;;-0.05;100.00;98186.59;4959867;28;20155;-63
2023/01/31 03:41:04;;;;;;;15.50;4.38;;;;;;;-0.03;100.00;98192.59;4948484;28;20073;-63
2023/01/31 03:43:58;;;;;;;10.18;4.10;;;;;;;0.00;100.00;98202.94;4949407;28;20090;-63
2023/01/31 03:46:38;;;;;;;11.77;4.47;;;;;;;0.10;100.00;98195.63;4952125;28;20045;-63
2023/01/31 03:49:10;;;;;;;16.88;5.35;;;;;;;-0.06;100.00;98203.56;4951204;28;20142;-63
2023/01/31 03:51:49;;;;;;;11.00;4.28;;;;;;;-0.03;100.00;98206.72;4949543;28;20122;-62
2023/01/31 03:54:21;;;;;;;9.68;4.28;;;;;;;-0.07;100.00;98201.91;4959987;28;20042;-61
2023/01/31 03:56:54;;;;;;;9.63;4.35;;;;;;;-0.20;100.00;98189.91;4954025;28;20494;-63
2023/01/31 03:59:26;;;;;;;13.40;5.05;;;;;;;-0.33;100.00;98185.03;4952700;28;20041;-63
2023/01/31 04:01:57;;;;;;;12.73;4.97;;;;;;;-0.21;100.00;98196.22;4953594;28;20134;-63
2023/01/31 04:04:38;;;;;;;11.25;4.05;;;;;;;-0.10;100.00;98194.25;4955850;28;20495;-63
2023/01/31 04:07:05;;;;;;;14.10;5.40;;;;;;;0.13;100.00;98213.09;4947412;28;20050;-63
2023/01/31 04:09:36;;;;;;;13.20;4.30;;;;;;;-0.06;100.00;98211.56;4968763;28;20123;-62
2023/01/31 04:12:03;;;;;;;13.52;4.88;;;;;;;-0.10;100.00;98212.88;4953937;28;20078;-62
2023/01/31 04:14:29;;;;;;;10.00;4.38;;;;;;;-0.20;100.00;98219.19;4959442;28;20053;-60
2023/01/31 04:16:56;;;;;;;13.82;4.65;;;;;;;-0.17;100.00;98215.34;4960362;28;20047;-63
2023/01/31 04:19:22;;;;;;;18.27;5.63;;;;;;;-0.10;100.00;98216.38;4966955;28;20094;-61
2023/01/31 04:21:49;;;;;;;15.15;4.88;;;;;;;0.07;100.00;98221.75;4960803;28;20054;-62
2023/01/31 04:24:15;;;;;;;16.40;5.68;;;;;;;-0.04;100.00;98213.06;4958226;28;20039;-61
2023/01/31 04:26:42;;;;;;;12.48;4.95;;;;;;;0.08;100.00;98218.91;4959669;28;20106;-63
2023/01/31 04:29:08;;;;;;;12.73;5.00;;;;;;;0.15;100.00;98216.44;4957156;28;20508;-61
2023/01/31 04:31:35;;;;;;;10.10;4.20;;;;;;;0.19;100.00;98220.41;4952601;28;20122;-62
2023/01/31 04:34:02;;;;;;;11.82;5.47;;;;;;;0.20;100.00;98215.94;4961010;28;20038;-62
2023/01/31 04:36:28;;;;;;;10.30;4.95;;;;;;;0.14;100.00;98212.09;4950354;28;20043;-63
2023/01/31 04:38:55;;;;;;;12.48;5.53;;;;;;;0.19;100.00;98208.94;4956127;28;20081;-64
2023/01/31 04:41:21;;;;;;;14.43;5.40;;;;;;;0.21;100.00;98212.25;4949200;28;20070;-62
2023/01/31 04:43:48;;;;;;;14.98;5.63;;;;;;;0.25;100.00;98217.13;4956524;28;20062;-61
2023/01/31 04:46:14;;;;;;;14.75;4.85;;;;;;;0.20;100.00;98214.13;4959811;28;20072;-63
2023/01/31 04:48:41;;;;;;;11.38;5.20;;;;;;;0.11;100.00;98215.91;4952586;28;20039;-61
2023/01/31 04:51:07;;;;;;;14.15;5.18;;;;;;;0.11;100.00;98223.91;4954362;28;20043;-62
2023/01/31 04:53:34;;;;;;;12.45;4.95;;;;;;;0.23;100.00;98204.97;4963026;28;20074;-62
2023/01/31 04:56:01;;;;;;;13.32;4.85;;;;;;;0.24;100.00;98204.81;4953043;28;20251;-62
2023/01/31 04:58:28;;;;;;;12.18;4.97;;;;;;;0.21;100.00;98205.13;4958452;28;20506;-63
2023/01/31 05:00:55;;;;;;;14.95;6.00;;;;;;;0.15;100.00;98200.47;4951350;28;20118;-63
2023/01/31 05:03:22;;;;;;;14.80;6.13;;;;;;;0.08;100.00;98202.91;4956263;28;20058;-61
2023/01/31 05:05:49;;;;;;;14.02;6.40;;;;;;;-0.04;100.00;98212.25;4956533;28;20071;-63
2023/01/31 05:08:16;;;;;;;13.27;5.28;;;;;;;-0.03;100.00;98219.22;4954386;28;20228;-61
2023/01/31 05:10:42;;;;;;;19.42;6.70;;;;;;;-0.10;100.00;98210.22;4953675;28;20127;-61
2023/01/31 05:13:09;;;;;;;10.63;5.63;;;;;;;-0.14;100.00;98207.06;4956907;28;20656;-63
2023/01/31 05:15:37;;;;;;;13.10;5.70;;;;;;;-0.16;100.00;98203.72;4966309;28;20046;-61
2023/01/31 05:18:03;;;;;;;17.73;7.35;;;;;;;-0.25;100.00;98199.38;4962759;28;20053;-62
2023/01/31 05:20:35;;;;;;;15.45;5.00;;;;;;;-0.35;100.00;98205.66;4957276;28;20526;-63
2023/01/31 05:23:02;;;;;;;10.02;5.18;;;;;;;-0.45;100.00;98211.09;4957419;28;20446;-62
2023/01/31 05:25:29;;;;;;;17.77;7.72;;;;;;;-0.80;100.00;98202.31;4959328;28;20043;-63
2023/01/31 05:27:57;;;;;;;22.65;10.50;;;;;;;-0.89;100.00;98208.56;4962567;28;20043;-63
2023/01/31 05:30:23;;;;;;;11.77;4.97;;;;;;;-1.05;100.00;98210.13;4957926;28;20040;-63
2023/01/31 05:32:50;;;;;;;18.92;9.50;;;;;;;-1.37;100.00;98204.44;4958114;28;20050;-61
2023/01/31 05:35:17;;;;;;;14.35;6.82;;;;;;;-1.66;100.00;98207.38;4955269;28;20039;-62
2023/01/31 05:37:45;;;;;;;13.82;6.32;;;;;;;-1.82;100.00;98211.53;4957101;28;20459;-63
2023/01/31 05:40:13;;;;;;;11.07;4.85;;;;;;;-1.83;100.00;98217.84;4951564;28;20951;-63
2023/01/31 05:42:40;;;;;;;10.27;4.47;;;;;;;-1.51;100.00;98202.34;4955048;28;20126;-63
2023/01/31 05:45:08;;;;;;;13.55;4.78;;;;;;;-1.61;100.00;98221.84;4959306;28;20486;-64
2023/01/31 05:47:35;;;;;;;13.55;6.03;;;;;;;-1.49;100.00;98224.25;4959679;28;20035;-63
2023/01/31 05:50:03;;;;;;;13.60;4.28;;;;;;;-1.19;100.00;98215.03;4957774;28;20070;-63
2023/01/31 05:52:30;;;;;;;14.30;5.68;;;;;;;-1.27;100.00;98220.28;4950211;28;20044;-63
2023/01/31 05:54:56;;;;;;;12.75;5.53;;;;;;;-1.71;100.00;98221.09;4952532;28;20054;-62
2023/01/31 05:57:23;;;;;;;10.93;5.80;;;;;;;-1.92;100.00;98224.88;4955620;28;20515;-63
2023/01/31 05:59:49;;;;;;;21.38;7.53;;;;;;;-2.15;100.00;98219.16;4959956;28;20051;-63
2023/01/31 06:02:16;;;;;;;15.85;6.13;;;;;;;-2.27;100.00;98221.19;4958256;28;20096;-63
2023/01/31 06:04:42;;;;;;;18.80;7.95;;;;;;;-2.31;100.00;98219.81;4949886;28;20137;-63
2023/01/31 06:07:09;;;;;;;16.25;6.45;;;;;;;-2.35;100.00;98222.75;4957925;28;20442;-60
2023/01/31 06:09:37;;;;;;;14.88;5.90;;;;;;;-2.22;100.00;98214.47;4957900;28;20047;-62
2023/01/31 06:12:04;;;;;;;15.48;5.80;;;;;;;-2.44;100.00;98217.53;4954206;28;20254;-63
2023/01/31 06:14:31;;;;;;;12.45;5.18;;;;;;;-2.26;100.00;98220.19;4956157;28;20053;-63
2023/01/31 06:16:58;;;;;;;13.02;4.65;;;;;;;-1.85;100.00;98228.59;4960369;28;20605;-62
2023/01/31 06:19:25;;;;;;;11.57;3.88;;;;;;;-1.43;100.00;98226.31;4952846;28;20506;-62
2023/01/31 06:21:51;;;;;;;14.63;4.57;;;;;;;-1.25;100.00;98222.78;4957318;28;20070;-62
2023/01/31 06:24:18;;;;;;;19.48;4.82;;;;;;;-1.18;100.00;98210.56;4957001;28;20047;-62
2023/01/31 06:26:44;;;;;;;9.85;4.78;;;;;;;-1.12;100.00;98212.59;4957691;28;20510;-63
2023/01/31 06:29:11;;;;;;;14.93;5.07;;;;;;;-0.91;100.00;98219.38;4958178;28;20045;-62
2023/01/31 06:31:37;;;;;;;10.18;3.92;;;;;;;-0.79;100.00;98223.44;4956861;28;20047;-62
2023/01/31 06:34:04;;;;;;;15.05;4.07;;;;;;;-0.80;100.00;98221.72;4961130;28;20085;-62
2023/01/31 06:36:32;;;;;;;9.93;4.40;;;;;;;-0.83;100.00;98221.22;4952548;28;20055;-62
2023/01/31 06:38:59;;;;;;;13.27;4.88;;;;;;;-0.77;100.00;98228.59;4955637;28;20479;-63
2023/01/31 06:41:25;;;;;;;11.60;4.13;;;;;;;-0.68;100.00;98229.44;4958243;28;20051;-63
2023/01/31 06:43:52;;;;;;;10.88;4.90;;;;;;;-0.65;100.00;98229.16;4960337;28;20495;-64
2023/01/31 06:46:18;;;;;;;11.65;3.75;;;;;;;-0.61;100.00;98238.47;4952871;28;20248;-63
2023/01/31 06:48:47;;;;;;;9.95;3.97;;;;;;;-0.63;100.00;98234.31;4955201;28;20122;-63
2023/01/31 06:51:15;;;;;;;9.30;4.32;;;;;;;-0.67;100.00;98229.28;4954539;28;20051;-62
2023/01/31 06:53:41;;;;;;;7.53;3.67;;;;;;;-0.68;100.00;98224.13;4950285;28;20050;-63
2023/01/31 06:56:08;;;;;;;12.55;3.42;;;;;;;-0.59;100.00;98231.16;4952989;28;20038;-63
2023/01/31 06:58:35;;;;;;;8.02;3.50;;;;;;;-0.64;100.00;98230.81;4949224;28;20039;-63
2023/01/31 07:01:09;;;;;;;9.73;4.50;;;;;;;-0.67;100.00;98223.97;4952159;28;20039;-63
2023/01/31 07:03:37;;;;;;;11.60;5.03;;;;;;;-0.73;100.00;98221.97;4952590;28;20121;-63
2023/01/31 07:06:04;;;;;;;8.98;3.13;;;;;;;-0.66;100.00;98230.97;4956664;28;20077;-61
2023/01/31 07:08:31;;;;;;;8.40;4.00;;;;;;;-0.56;100.00;98230.00;4950395;28;20081;-62
2023/01/31 07:11:01;;;;;;;15.88;5.05;;;;;;;-0.57;100.00;98233.66;4958396;28;20230;-63
2023/01/31 07:13:29;;;;;;;8.95;4.20;;;;;;;-0.51;100.00;98235.69;4960416;28;20517;-62
2023/01/31 07:15:56;;;;;;;10.82;4.05;;;;;;;-0.42;100.00;98244.53;4954160;28;20089;-63
2023/01/31 07:18:23;;;;;;;10.40;4.15;;;;;;;-0.50;100.00;98240.03;4950462;28;20038;-63
2023/01/31 07:20:50;;;;;;;16.90;5.88;;;;;;;-0.46;100.00;98227.22;4959691;28;20042;-63
2023/01/31 07:23:16;;;;;;;11.90;3.55;;;;;;;-0.44;100.00;98235.91;4963169;28;20481;-63
2023/01/31 07:25:43;;;;;;;7.70;3.20;;;;;;;-0.48;100.00;98242.53;4960422;28;20129;-63
2023/01/31 07:28:10;;;;;;;13.27;4.85;;;;;;;-0.45;100.00;98240.38;4954640;28;20031;-63
2023/01/31 07:30:38;;;;;;;11.07;3.85;;;;;;;-0.47;100.00;98241.53;4952702;28;20051;-63
2023/01/31 07:33:05;;;;;;;15.50;5.70;;;;;;;-0.67;100.00;98237.28;4954817;28;20039;-63
2023/01/31 07:35:31;;;;;;;14.25;4.85;;;;;;;-0.68;100.00;98246.25;4952103;28;20061;-64
2023/01/31 07:37:58;;;;;;;12.35;5.03;;;;;;;-0.70;100.00;98242.09;4966068;28;20043;-56
2023/01/31 07:40:25;;;;;;;16.83;7.55;;;;;;;-0.67;100.00;98239.94;4957549;28;20054;-53
2023/01/31 07:42:57;;;;;;;14.77;4.53;;;;;;;-0.69;100.00;98244.59;4954533;28;20066;-52
2023/01/31 07:45:23;;;;;;;;;;;;;;;-0.68;100.00;98240.09;4952860;28;20075;-52
2023/01/31 07:47:50;;;;;;;10.57;4.10;;;;;;;-0.68;100.00;98243.59;4952971;28;19985;-56
2023/01/31 07:50:17;;;;;;;11.20;4.75;;;;;;;-0.71;100.00;98240.41;4953003;28;20055;-55
2023/01/31 07:52:44;;;;;;;6.60;3.25;;;;;;;-0.63;100.00;98242.28;4956809;28;20058;-62
2023/01/31 07:55:10;;;;;;;11.75;4.90;;;;;;;-0.62;100.00;98247.47;4957437;28;20050;-62
2023/01/31 07:57:37;;;;;;;10.68;3.97;;;;;;;-0.60;100.00;98260.56;4960154;28;20468;-62
2023/01/31 08:03:31;;;;;;;11.00;4.15;;;;;;;-0.54;100.00;98257.28;4957323;28;20038;-62
2023/01/31 08:05:35;;;;;;;11.45;4.72;;;;;;;-0.39;100.00;98268.19;4954998;28;20062;-63
2023/01/31 08:08:09;;;;;;;17.05;6.53;;;;;;;-0.38;100.00;98272.50;4958429;28;20074;-63
2023/01/31 08:10:36;;;;;;;12.45;5.70;;;;;;;-0.30;100.00;98269.03;4954190;28;20047;-62
2023/01/31 08:13:03;;;;;;;11.82;4.05;;;;;;;-0.14;100.00;98276.28;4961523;28;20042;-62
2023/01/31 08:15:29;;;;;;;13.35;4.75;;;;;;;0.01;100.00;98263.19;4959934;28;20047;-62
2023/01/31 08:17:56;;;;;;;12.63;4.47;;;;;;;0.15;100.00;98261.72;4954497;28;20145;-61
2023/01/31 08:20:22;;;;;;;11.70;4.88;;;;;;;0.32;99.43;98273.22;4953586;28;20050;-62
2023/01/31 08:22:49;;;;;;;22.38;11.23;;;;;;;0.50;98.34;98262.44;4960305;28;20320;-61
2023/01/31 08:25:15;;;;;;;16.77;6.63;;;;;;;0.64;97.57;98266.28;4954806;28;20476;-64
2023/01/31 08:27:45;;;;;;;8.95;3.10;;;;;;;0.80;95.91;98248.63;4955001;28;20074;-59
2023/01/31 08:30:12;;;;;;;6.82;2.83;;;;;;;0.97;95.01;98251.28;4957462;28;20051;-64
2023/01/31 08:32:39;;;;;;;8.35;3.65;;;;;;;1.13;94.22;98248.59;4950473;28;20583;-62
2023/01/31 08:35:06;;;;;;;11.80;3.25;;;;;;;1.29;93.59;98238.91;4954649;28;20074;-63
2023/01/31 08:37:33;;;;;;;8.93;3.20;;;;;;;1.39;92.57;98246.69;4951103;28;20054;-63
2023/01/31 08:39:59;;;;;;;6.45;2.90;;;;;;;1.56;91.91;98234.94;4959072;28;20126;-61
2023/01/31 08:42:26;;;;;;;10.10;4.05;;;;;;;1.46;92.53;98237.00;4952124;28;20043;-63
2023/01/31 08:44:52;;;;;;;9.60;3.53;;;;;;;1.54;92.65;98236.97;4959120;28;20434;-62
2023/01/31 08:47:19;;;;;;;13.10;3.83;;;;;;;1.69;91.70;98237.09;4960196;28;20121;-64
2023/01/31 08:49:45;;;;;;;11.85;3.58;;;;;;;1.85;91.44;98243.38;4954251;28;20122;-64
2023/01/31 08:52:12;;;;;;;6.60;3.30;;;;;;;1.95;90.14;98235.13;4955846;28;20465;-64
2023/01/31 08:54:38;;;;;;;8.98;2.65;;;;;;;2.10;89.41;98243.22;4961363;28;20480;-62
2023/01/31 08:57:05;;;;;;;10.55;3.08;;;;;;;2.12;89.27;98251.91;4955514;28;20502;-61
2023/01/31 08:59:32;;;;;;;8.68;2.92;;;;;;;1.97;88.77;98251.81;4959888;28;20074;-60
2023/01/31 09:01:58;;;;;;;9.57;3.28;;;;;;;1.80;89.91;98237.69;4951214;28;20053;-62
2023/01/31 09:04:25;;;;;;;10.27;3.22;;;;;;;1.69;90.87;98244.25;4962866;28;20043;-61
2023/01/31 09:06:53;;;;;;;6.80;3.28;;;;;;;1.69;90.92;98231.75;4957364;28;20134;-61
2023/01/31 09:09:19;;;;;;;7.75;2.58;;;;;;;1.69;90.69;98236.25;4957766;28;20043;-62
2023/01/31 09:11:46;;;;;;;9.43;3.33;;;;;;;1.74;90.91;98244.59;4958302;28;20051;-59
2023/01/31 09:14:12;;;;;;;8.85;2.50;;;;;;;1.81;89.62;98236.72;4963086;28;20042;-63
2023/01/31 09:16:39;;;;;;;10.35;3.25;;;;;;;1.71;90.53;98234.25;4960647;28;20043;-61
2023/01/31 09:19:08;;;;;;;11.23;3.90;;;;;;;1.69;90.85;98249.59;4959817;28;20086;-62
2023/01/31 09:21:35;;;;;;;11.68;3.30;;;;;;;1.59;91.58;98236.47;4951577;28;20472;-61
2023/01/31 09:24:02;;;;;;;11.80;3.90;;;;;;;1.53;91.95;98229.97;4954590;28;20121;-62
2023/01/31 09:26:29;;;;;;;7.50;3.10;;;;;;;1.53;92.69;98229.13;4961370;28;20085;-62
2023/01/31 09:28:57;;;;;;;7.10;3.22;;;;;;;1.61;91.94;98215.75;4958464;28;20042;-62
2023/01/31 09:31:24;;;;;;;8.85;3.45;;;;;;;1.82;90.76;98225.00;4961738;28;20039;-62
2023/01/31 09:33:50;;;;;;;8.40;3.42;;;;;;;1.98;90.51;98228.63;4960177;28;20532;-62
2023/01/31 09:36:20;;;;;;;7.05;2.83;;;;;;;1.98;89.91;98233.97;4962730;28;20043;-62
2023/01/31 09:38:46;;;;;;;8.80;2.97;;;;;;;1.86;90.13;98229.00;4958233;28;20126;-62
2023/01/31 09:41:52;;;;;;;9.50;3.33;;;;;;;1.65;91.63;98219.75;4956905;28;20039;-62
2023/01/31 09:44:24;;;;;;;8.30;3.83;;;;;;;1.64;92.06;98214.56;4935241;29;20077;-62
2023/01/31 09:47:17;;;;;;;9.00;3.17;;;;;;;1.81;90.63;98221.50;4948385;28;20628;-63
2023/01/31 09:50:15;;;;;;;7.25;3.08;;;;;;;1.93;91.06;98219.28;4947250;28;20039;-64
2023/01/31 09:52:42;;;;;;;9.68;2.85;;;;;;;2.03;90.42;98223.56;4925126;28;20419;-64
2023/01/31 09:55:17;;;;;;;11.20;3.65;;;;;;;1.96;90.85;98234.13;4955670;28;20070;-63
2023/01/31 09:58:02;;;;;;;7.78;2.50;;;;;;;2.31;89.14;98241.75;4963497;28;20224;-60
2023/01/31 10:00:42;;;;;;;10.27;3.72;;;;;;;2.27;88.51;98246.63;4950511;28;20487;-61
2023/01/31 10:03:37;;;;;;;9.55;3.75;;;;;;;2.00;90.08;98240.78;4958300;28;20061;-63
2023/01/31 10:06:28;;;;;;;8.43;3.60;;;;;;;2.02;91.06;98237.91;4951828;28;20040;-64
2023/01/31 10:09:02;;;;;;;8.13;2.90;;;;;;;2.17;89.37;98235.31;4959072;28;20043;-59
2023/01/31 10:11:40;;;;;;;8.80;2.70;;;;;;;2.23;88.35;98239.13;4947350;28;20134;-58
2023/01/31 10:14:28;;;;;;;11.65;2.88;;;;;;;2.30;86.97;98242.78;4951301;28;20047;-64
2023/01/31 10:17:05;;;;;;;7.75;2.25;;;;;;;2.28;86.52;98244.81;4953521;28;20256;-60
2023/01/31 10:20:21;;;;;;;10.57;3.67;;;;;;;2.43;86.69;98247.56;4955253;28;20414;-62
2023/01/31 10:23:01;;;;;;;9.07;3.45;;;;;;;2.34;89.70;98242.25;4951326;28;20057;-62
2023/01/31 10:25:48;;;;;;;7.20;3.47;;;;;;;2.40;88.09;98247.91;4950492;28;20062;-61
2023/01/31 10:28:41;;;;;;;11.88;3.60;;;;;;;2.43;88.89;98242.22;4931424;28;20062;-61
2023/01/31 10:31:18;;;;;;;10.82;2.85;;;;;;;2.54;88.87;98240.97;4955005;28;20043;-63
2023/01/31 10:34:14;;;;;;;7.55;2.72;;;;;;;2.62;86.22;98234.72;4957116;28;20470;-60
2023/01/31 10:36:51;;;;;;;9.68;2.45;;;;;;;2.92;84.55;98235.63;4953712;28;20089;-60
2023/01/31 10:39:30;;;;;;;10.70;3.30;;;;;;;2.94;85.95;98230.91;4950265;28;20035;-62
2023/01/31 10:42:00;;;;;;;9.73;2.42;;;;;;;2.94;85.32;98232.75;4953944;28;20047;-63
2023/01/31 10:45:16;;;;;;;7.30;2.20;;;;;;;3.02;85.68;98226.50;4953594;28;20086;-63
2023/01/31 10:47:59;;;;;;;5.32;1.90;;;;;;;3.01;84.04;98230.19;4941210;28;20063;-62
2023/01/31 10:50:55;;;;;;;8.27;2.47;;;;;;;2.88;83.25;98237.00;4956636;28;20364;-62
2023/01/31 10:53:43;;;;;;;6.95;2.40;;;;;;;2.82;83.07;98224.34;4955718;28;20046;-62
2023/01/31 10:56:18;;;;;;;4.70;2.38;;;;;;;2.91;83.08;98215.22;4954547;28;20050;-61
2023/01/31 10:58:46;;;;;;;6.18;1.80;;;;;;;2.89;82.26;98222.63;4951030;28;20656;-60
2023/01/31 11:01:14;;;;;;;6.65;2.13;;;;;;;2.93;82.21;98221.25;4952691;28;20585;-61
2023/01/31 11:03:50;;;;;;;4.95;2.13;;;;;;;2.82;82.63;98224.34;4954466;28;20043;-61
2023/01/31 11:06:19;;;;;;;8.23;2.70;;;;;;;2.76;83.30;98235.78;4960709;28;20113;-60
2023/01/31 11:08:52;;;;;;;8.85;2.78;;;;;;;3.02;80.90;98223.84;4958177;28;20047;-60
2023/01/31 11:11:21;;;;;;;10.90;3.70;;;;;;;3.09;81.54;98216.72;4954214;28;20039;-61
2023/01/31 11:14:17;;;;;;;3.65;1.65;;;;;;;3.17;80.94;98208.63;4954395;28;20117;-59
2023/01/31 11:16:44;;;;;;;7.55;2.63;;;;;;;3.23;79.27;98201.69;4955998;28;20046;-59
2023/01/31 11:19:45;;;;;;;7.40;2.08;;;;;;;3.23;79.04;98178.44;4952937;28;20063;-59
2023/01/31 11:22:26;;;;;;;8.52;2.47;;;;;;;3.14;79.47;98168.88;4960559;28;20054;-57
2023/01/31 11:24:54;;;;;;;9.73;3.10;;;;;;;3.10;79.91;98152.31;4957351;28;20051;-60
2023/01/31 11:27:30;;;;;;;9.82;2.78;;;;;;;3.05;80.01;98148.53;4949345;28;20327;-59
2023/01/31 11:29:58;;;;;;;9.23;2.70;;;;;;;2.95;80.25;98152.31;4957019;28;20042;-60
2023/01/31 11:32:33;;;;;;;9.60;2.80;;;;;;;3.01;79.66;98164.13;4952480;28;20051;-58
2023/01/31 11:35:25;;;;;;;8.02;2.17;;;;;;;3.19;77.62;98150.41;4958805;28;20061;-59
2023/01/31 11:37:55;;;;;;;;;;;;;;;3.23;77.76;98129.44;4961587;28;20489;-60
2023/01/31 11:40:34;;;;;;;4.80;1.30;;;;;;;3.32;77.25;98140.88;4955069;28;19936;-61
2023/01/31 11:43:13;;;;;;;8.32;2.03;;;;;;;3.15;77.45;98148.25;4959450;28;21618;-61
2023/01/31 11:45:45;;;;;;;4.97;1.40;;;;;;;3.25;78.05;98152.31;4954759;28;20057;-58
2023/01/31 11:48:12;;;;;;;4.45;1.55;;;;;;;3.33;77.84;98150.56;4961376;28;20118;-59
2023/01/31 11:50:49;;;;;;;9.13;2.17;;;;;;;3.21;76.55;98172.44;4955029;28;20130;-60
2023/01/31 11:53:17;;;;;;;6.85;1.75;;;;;;;3.33;77.21;98158.59;4954398;28;20043;-60
2023/01/31 11:55:46;;;;;;;5.07;2.22;;;;;;;3.31;78.11;98166.81;4954188;28;20059;-61
2023/01/31 11:58:29;;;;;;;6.13;2.38;;;;;;;3.28;78.19;98169.03;4953788;28;20071;-62
2023/01/31 12:01:05;;;;;;;8.52;2.08;;;;;;;3.15;76.74;98162.50;4957057;28;20207;-61
2023/01/31 12:03:32;;;;;;;4.75;1.50;;;;;;;3.11;77.65;98153.16;4952658;28;20039;-61